createdAt,value
2018-07-06T00:00:52.255Z,0.00
2018-07-06T00:01:52.267Z,0.00
2018-07-06T00:02:52.204Z,0.00
2018-07-06T00:03:52.192Z,0.00
2018-07-06T00:04:52.105Z,0.00
2018-07-06T00:05:52.075Z,0.00
2018-07-06T00:06:52.034Z,0.00
2018-07-06T00:07:52.021Z,0.00
2018-07-06T00:08:52.042Z,0.00
2018-07-06T00:09:52.000Z,0.00
2018-07-06T00:10:51.892Z,0.00
2018-07-06T00:11:51.853Z,0.00
2018-07-06T00:12:51.824Z,0.00
2018-07-06T00:13:51.777Z,0.00
2018-07-06T00:14:51.779Z,0.00
2018-07-06T00:15:51.694Z,0.00
2018-07-06T00:16:51.689Z,0.00
2018-07-06T00:18:00.137Z,0.00
2018-07-06T00:18:51.575Z,0.00
2018-07-06T00:19:51.567Z,0.00
2018-07-06T00:20:51.546Z,0.00
2018-07-06T00:21:51.482Z,0.00
2018-07-06T00:22:51.437Z,0.00
2018-07-06T00:23:51.392Z,0.00
2018-07-06T00:24:51.374Z,0.00
2018-07-06T00:25:51.309Z,0.00
2018-07-06T00:26:51.353Z,0.00
2018-07-06T00:27:51.292Z,0.00
2018-07-06T00:28:51.290Z,0.00
2018-07-06T00:29:51.210Z,0.00
2018-07-06T00:30:51.202Z,0.00
2018-07-06T00:31:51.104Z,0.00
2018-07-06T00:32:51.067Z,0.00
2018-07-06T00:33:51.031Z,0.00
2018-07-06T00:34:51.000Z,0.00
2018-07-06T00:35:50.948Z,0.00
2018-07-06T00:36:50.956Z,0.00
2018-07-06T00:37:50.905Z,0.00
2018-07-06T00:38:50.825Z,0.00
2018-07-06T00:39:50.819Z,0.00
2018-07-06T00:40:50.838Z,0.00
2018-07-06T00:41:50.712Z,0.00
2018-07-06T00:42:50.688Z,0.00
2018-07-06T00:43:50.649Z,0.00
2018-07-06T00:44:50.715Z,0.00
2018-07-06T00:45:50.600Z,0.00
2018-07-06T00:46:50.556Z,0.00
2018-07-06T00:47:50.507Z,0.00
2018-07-06T00:48:50.474Z,0.00
2018-07-06T00:49:50.522Z,0.00
2018-07-06T00:50:50.366Z,0.00
2018-07-06T00:51:50.346Z,0.00
2018-07-06T00:52:50.303Z,0.00
2018-07-06T00:53:50.265Z,0.00
2018-07-06T00:54:50.282Z,0.00
2018-07-06T00:55:50.174Z,0.00
2018-07-06T00:56:50.146Z,0.00
2018-07-06T00:57:50.133Z,0.00
2018-07-06T00:58:50.083Z,0.00
2018-07-06T00:59:50.125Z,0.00
2018-07-06T01:00:50.019Z,0.00
2018-07-06T01:01:50.109Z,0.00
2018-07-06T01:02:49.949Z,0.00
2018-07-06T01:03:49.929Z,0.00
2018-07-06T01:04:49.886Z,0.00
2018-07-06T01:05:49.884Z,0.00
2018-07-06T01:06:49.786Z,0.00
2018-07-06T01:07:49.790Z,0.00
2018-07-06T01:08:49.714Z,0.00
2018-07-06T01:09:49.689Z,0.00
2018-07-06T01:10:49.626Z,0.00
2018-07-06T01:11:49.589Z,0.00
2018-07-06T01:12:49.546Z,0.00
2018-07-06T01:13:49.500Z,0.00
2018-07-06T01:14:49.497Z,0.00
2018-07-06T01:15:49.437Z,0.00
2018-07-06T01:16:49.437Z,0.00
2018-07-06T01:17:49.355Z,0.00
2018-07-06T01:18:49.310Z,0.00
2018-07-06T01:19:49.307Z,0.00
2018-07-06T01:20:49.253Z,0.00
2018-07-06T01:21:49.253Z,0.00
2018-07-06T01:22:49.161Z,0.00
2018-07-06T01:23:49.190Z,0.00
2018-07-06T01:24:49.118Z,0.00
2018-07-06T01:25:49.054Z,0.00
2018-07-06T01:26:49.082Z,0.00
2018-07-06T01:27:49.018Z,0.00
2018-07-06T01:28:48.974Z,0.00
2018-07-06T01:29:48.962Z,0.00
2018-07-06T01:30:48.882Z,0.00
2018-07-06T01:31:48.887Z,0.00
2018-07-06T01:32:59.183Z,0.00
2018-07-06T01:33:48.742Z,0.00
2018-07-06T01:34:48.711Z,0.00
2018-07-06T01:35:48.776Z,0.00
2018-07-06T01:36:48.673Z,0.00
2018-07-06T01:37:48.599Z,0.00
2018-07-06T01:38:48.611Z,0.00
2018-07-06T01:39:48.530Z,0.00
2018-07-06T01:40:48.523Z,0.00
2018-07-06T01:41:48.470Z,0.00
2018-07-06T01:42:48.429Z,0.00
2018-07-06T01:43:48.348Z,0.00
2018-07-06T01:44:48.331Z,0.00
2018-07-06T01:45:48.384Z,0.00
2018-07-06T01:46:48.244Z,0.00
2018-07-06T01:47:48.208Z,0.00
2018-07-06T01:48:48.166Z,0.00
2018-07-06T01:49:48.171Z,0.00
2018-07-06T01:50:48.138Z,0.00
2018-07-06T01:51:48.058Z,0.00
2018-07-06T01:52:48.057Z,0.00
2018-07-06T01:53:47.983Z,0.00
2018-07-06T01:54:47.987Z,0.00
2018-07-06T01:55:47.930Z,0.00
2018-07-06T01:56:47.852Z,0.00
2018-07-06T01:57:47.860Z,0.00
2018-07-06T01:58:47.786Z,0.00
2018-07-06T01:59:47.772Z,0.00
2018-07-06T02:00:47.772Z,0.00
2018-07-06T02:01:47.693Z,0.00
2018-07-06T02:02:47.627Z,0.00
2018-07-06T02:03:47.603Z,0.00
2018-07-06T02:04:47.558Z,0.00
2018-07-06T02:05:47.518Z,0.00
2018-07-06T02:06:47.493Z,0.00
2018-07-06T02:07:47.508Z,0.00
2018-07-06T02:08:47.397Z,0.00
2018-07-06T02:09:47.359Z,0.00
2018-07-06T02:10:47.345Z,0.00
2018-07-06T02:11:48.283Z,0.00
2018-07-06T02:12:47.262Z,0.00
2018-07-06T02:13:47.219Z,0.00
2018-07-06T02:14:47.171Z,0.00
2018-07-06T02:15:47.140Z,0.00
2018-07-06T02:16:47.192Z,0.00
2018-07-06T02:17:47.051Z,0.00
2018-07-06T02:18:47.015Z,0.00
2018-07-06T02:19:47.037Z,0.00
2018-07-06T02:20:46.972Z,0.00
2018-07-06T02:21:46.947Z,0.00
2018-07-06T02:22:46.874Z,0.00
2018-07-06T02:23:46.830Z,0.00
2018-07-06T02:24:46.789Z,0.00
2018-07-06T02:25:46.765Z,0.00
2018-07-06T02:26:46.778Z,0.00
2018-07-06T02:27:46.688Z,0.00
2018-07-06T02:28:46.625Z,0.00
2018-07-06T02:29:46.591Z,0.00
2018-07-06T02:30:46.580Z,0.00
2018-07-06T02:31:46.561Z,0.00
2018-07-06T02:32:46.501Z,0.00
2018-07-06T02:33:46.463Z,0.00
2018-07-06T02:34:46.414Z,0.00
2018-07-06T02:35:46.356Z,4.00
2018-07-06T02:36:46.340Z,4.00
2018-07-06T02:37:46.318Z,4.00
2018-07-06T02:38:46.261Z,0.00
2018-07-06T02:39:46.279Z,0.00
2018-07-06T02:40:46.195Z,4.00
2018-07-06T02:41:46.146Z,4.00
2018-07-06T02:42:46.093Z,4.00
2018-07-06T02:43:46.097Z,4.00
2018-07-06T02:44:46.067Z,4.00
2018-07-06T02:45:45.984Z,8.00
2018-07-06T02:46:45.950Z,8.00
2018-07-06T02:47:45.924Z,8.00
2018-07-06T02:48:45.885Z,8.00
2018-07-06T02:49:45.833Z,12.00
2018-07-06T02:50:45.786Z,12.00
2018-07-06T02:51:45.770Z,12.00
2018-07-06T02:52:45.781Z,16.00
2018-07-06T02:53:45.735Z,16.00
2018-07-06T02:54:45.714Z,20.00
2018-07-06T02:55:45.617Z,20.00
2018-07-06T02:56:45.558Z,24.00
2018-07-06T02:57:45.532Z,28.00
2018-07-06T02:58:45.496Z,28.00
2018-07-06T02:59:45.536Z,36.00
2018-07-06T03:00:45.416Z,36.00
2018-07-06T03:01:45.375Z,44.00
2018-07-06T03:02:45.328Z,44.00
2018-07-06T03:03:45.305Z,52.00
2018-07-06T03:04:45.286Z,60.00
2018-07-06T03:05:45.242Z,68.00
2018-07-06T03:06:45.207Z,72.00
2018-07-06T03:07:45.135Z,80.00
2018-07-06T03:08:45.122Z,84.00
2018-07-06T03:09:45.093Z,96.00
2018-07-06T03:10:45.021Z,104.00
2018-07-06T03:11:45.043Z,116.00
2018-07-06T03:12:44.982Z,128.00
2018-07-06T03:13:44.948Z,144.00
2018-07-06T03:14:44.890Z,160.00
2018-07-06T03:15:44.839Z,172.00
2018-07-06T03:16:44.793Z,192.00
2018-07-06T03:17:44.859Z,208.00
2018-07-06T03:18:44.724Z,228.00
2018-07-06T03:19:44.703Z,252.00
2018-07-06T03:20:44.648Z,272.00
2018-07-06T03:21:44.694Z,292.00
2018-07-06T03:22:44.567Z,320.00
2018-07-06T03:23:44.540Z,344.00
2018-07-06T03:24:44.535Z,380.00
2018-07-06T03:25:44.454Z,412.00
2018-07-06T03:26:44.421Z,440.00
2018-07-06T03:27:44.386Z,472.00
2018-07-06T03:28:44.555Z,504.00
2018-07-06T03:29:44.463Z,544.00
2018-07-06T03:30:44.293Z,580.00
2018-07-06T03:31:44.285Z,612.00
2018-07-06T03:32:44.237Z,656.00
2018-07-06T03:33:44.183Z,696.00
2018-07-06T03:34:44.143Z,740.00
2018-07-06T03:35:44.146Z,784.00
2018-07-06T03:36:44.030Z,840.00
2018-07-06T03:37:43.988Z,896.00
2018-07-06T03:38:43.941Z,952.00
2018-07-06T03:39:43.906Z,1012.00
2018-07-06T03:40:43.889Z,1072.00
2018-07-06T03:41:43.847Z,1136.00
2018-07-06T03:42:43.812Z,1200.00
2018-07-06T03:43:43.756Z,1264.00
2018-07-06T03:44:43.819Z,1324.00
2018-07-06T03:45:43.698Z,1376.00
2018-07-06T03:46:43.641Z,1436.00
2018-07-06T03:47:43.606Z,1472.00
2018-07-06T03:48:53.968Z,1508.00
2018-07-06T03:49:43.515Z,1540.00
2018-07-06T03:50:43.533Z,1568.00
2018-07-06T03:51:43.475Z,1600.00
2018-07-06T03:52:43.478Z,1636.00
2018-07-06T03:53:43.368Z,1676.00
2018-07-06T03:54:43.344Z,1712.00
2018-07-06T03:55:43.290Z,1752.00
2018-07-06T03:56:43.299Z,1804.00
2018-07-06T03:57:43.227Z,1864.00
2018-07-06T03:58:43.260Z,1920.00
2018-07-06T03:59:43.160Z,1980.00
2018-07-06T04:00:43.118Z,2032.00
2018-07-06T04:01:43.097Z,2092.00
2018-07-06T04:02:43.067Z,2152.00
2018-07-06T04:03:42.985Z,2220.00
2018-07-06T04:04:42.947Z,2292.00
2018-07-06T04:05:42.950Z,2364.00
2018-07-06T04:06:42.914Z,2428.00
2018-07-06T04:07:42.906Z,2492.00
2018-07-06T04:08:42.847Z,2556.00
2018-07-06T04:09:42.756Z,2612.00
2018-07-06T04:10:42.726Z,2676.00
2018-07-06T04:11:42.696Z,2744.00
2018-07-06T04:12:42.678Z,2804.00
2018-07-06T04:13:42.615Z,2868.00
2018-07-06T04:14:42.577Z,2932.00
2018-07-06T04:15:42.521Z,2992.00
2018-07-06T04:16:42.518Z,3052.00
2018-07-06T04:17:42.460Z,3116.00
2018-07-06T04:18:42.428Z,3184.00
2018-07-06T04:19:42.386Z,3280.00
2018-07-06T04:20:42.357Z,3388.00
2018-07-06T04:21:42.350Z,3500.00
2018-07-06T04:22:42.338Z,3592.00
2018-07-06T04:23:42.245Z,3664.00
2018-07-06T04:24:42.274Z,3740.00
2018-07-06T04:25:42.183Z,3816.00
2018-07-06T04:26:42.135Z,3788.00
2018-07-06T04:27:42.089Z,3924.00
2018-07-06T04:28:42.042Z,4004.00
2018-07-06T04:29:42.004Z,4108.00
2018-07-06T04:30:41.971Z,4256.00
2018-07-06T04:31:41.954Z,4360.00
2018-07-06T04:32:41.883Z,4412.00
2018-07-06T04:33:41.847Z,4484.00
2018-07-06T04:34:41.802Z,4560.00
2018-07-06T04:35:51.993Z,4744.00
2018-07-06T04:36:41.749Z,5248.00
2018-07-06T04:37:41.682Z,5924.00
2018-07-06T04:38:41.660Z,6648.00
2018-07-06T04:39:41.600Z,7180.00
2018-07-06T04:40:41.573Z,7364.00
2018-07-06T04:41:41.547Z,7304.00
2018-07-06T04:42:41.487Z,7516.00
2018-07-06T04:43:41.472Z,7644.00
2018-07-06T04:44:41.416Z,7588.00
2018-07-06T04:45:41.384Z,7740.00
2018-07-06T04:46:41.366Z,7836.00
2018-07-06T04:47:41.311Z,7820.00
2018-07-06T04:48:41.321Z,7860.00
2018-07-06T04:49:41.297Z,8172.00
2018-07-06T04:50:41.193Z,8664.00
2018-07-06T04:51:41.158Z,8472.00
2018-07-06T04:52:41.152Z,6768.00
2018-07-06T04:53:41.076Z,7888.00
2018-07-06T04:54:41.036Z,7780.00
2018-07-06T04:55:41.067Z,7564.00
2018-07-06T04:56:40.979Z,7280.00
2018-07-06T04:57:41.003Z,6740.00
2018-07-06T04:58:50.002Z,6704.00
2018-07-06T04:59:40.915Z,6572.00
2018-07-06T05:00:40.840Z,6260.00
2018-07-06T05:01:40.791Z,6208.00
2018-07-06T05:02:40.783Z,5872.00
2018-07-06T05:03:40.705Z,5796.00
2018-07-06T05:04:40.675Z,5648.00
2018-07-06T05:05:40.703Z,5584.00
2018-07-06T05:06:40.641Z,6180.00
2018-07-06T05:07:40.597Z,7264.00
2018-07-06T05:08:40.577Z,7644.00
2018-07-06T05:09:40.523Z,7408.00
2018-07-06T05:10:40.461Z,7092.00
2018-07-06T05:11:40.433Z,6988.00
2018-07-06T05:12:40.409Z,6660.00
2018-07-06T05:13:40.369Z,5796.00
2018-07-06T05:14:40.360Z,5616.00
2018-07-06T05:15:40.275Z,5536.00
2018-07-06T05:16:40.260Z,5244.00
2018-07-06T05:17:40.216Z,5056.00
2018-07-06T05:18:40.184Z,5092.00
2018-07-06T05:19:40.230Z,5196.00
2018-07-06T05:20:40.091Z,5268.00
2018-07-06T05:21:50.525Z,5228.00
2018-07-06T05:22:40.039Z,4896.00
2018-07-06T05:23:40.033Z,4632.00
2018-07-06T05:24:40.113Z,4560.00
2018-07-06T05:25:39.945Z,4576.00
2018-07-06T05:26:39.902Z,4676.00
2018-07-06T05:27:39.835Z,4584.00
2018-07-06T05:28:39.812Z,4388.00
2018-07-06T05:29:39.805Z,4308.00
2018-07-06T05:30:39.728Z,4308.00
2018-07-06T05:31:39.691Z,4348.00
2018-07-06T05:32:39.651Z,4364.00
2018-07-06T05:33:39.642Z,4492.00
2018-07-06T05:34:39.657Z,4628.00
2018-07-06T05:35:39.556Z,4732.00
2018-07-06T05:36:39.517Z,4460.00
2018-07-06T05:37:39.489Z,4280.00
2018-07-06T05:38:39.443Z,4008.00
2018-07-06T05:39:39.422Z,3784.00
2018-07-06T05:40:39.373Z,3724.00
2018-07-06T05:41:39.350Z,4076.00
2018-07-06T05:42:39.332Z,4296.00
2018-07-06T05:43:39.273Z,4248.00
2018-07-06T05:44:39.255Z,4176.00
2018-07-06T05:45:47.758Z,4324.00
2018-07-06T05:46:39.138Z,4796.00
2018-07-06T05:47:39.174Z,5348.00
2018-07-06T05:48:39.336Z,5468.00
2018-07-06T05:49:39.112Z,5896.00
2018-07-06T05:50:39.047Z,5740.00
2018-07-06T05:51:38.964Z,5004.00
2018-07-06T05:52:38.927Z,4708.00
2018-07-06T05:53:38.891Z,4840.00
2018-07-06T05:54:38.922Z,6072.00
2018-07-06T05:55:38.875Z,6632.00
2018-07-06T05:56:38.822Z,5796.00
2018-07-06T05:57:38.745Z,5460.00
2018-07-06T05:58:38.699Z,5688.00
2018-07-06T05:59:38.655Z,6228.00
2018-07-06T06:00:38.663Z,6092.00
2018-07-06T06:01:38.586Z,6036.00
2018-07-06T06:02:38.557Z,6748.00
2018-07-06T06:03:38.508Z,6848.00
2018-07-06T06:04:38.529Z,6432.00
2018-07-06T06:05:38.457Z,6348.00
2018-07-06T06:06:38.417Z,6004.00
2018-07-06T06:07:38.429Z,5860.00
2018-07-06T06:08:46.771Z,6404.00
2018-07-06T06:09:38.300Z,6676.00
2018-07-06T06:10:38.289Z,6484.00
2018-07-06T06:11:38.212Z,6436.00
2018-07-06T06:12:38.204Z,6584.00
2018-07-06T06:13:38.163Z,6940.00
2018-07-06T06:14:38.103Z,7460.00
2018-07-06T06:15:38.130Z,7612.00
2018-07-06T06:16:38.038Z,7848.00
2018-07-06T06:17:38.016Z,8004.00
2018-07-06T06:18:38.036Z,7928.00
2018-07-06T06:19:37.960Z,8304.00
2018-07-06T06:20:37.898Z,8764.00
2018-07-06T06:21:37.877Z,8732.00
2018-07-06T06:22:37.828Z,8484.00
2018-07-06T06:23:37.780Z,8716.00
2018-07-06T06:24:37.746Z,8996.00
2018-07-06T06:25:37.725Z,9532.00
2018-07-06T06:26:37.703Z,10796.00
2018-07-06T06:27:37.627Z,10332.00
2018-07-06T06:28:37.622Z,10156.00
2018-07-06T06:29:37.567Z,10880.00
2018-07-06T06:30:37.588Z,11168.00
2018-07-06T06:31:37.505Z,10776.00
2018-07-06T06:32:47.597Z,11036.00
2018-07-06T06:33:37.493Z,11080.00
2018-07-06T06:34:37.389Z,10428.00
2018-07-06T06:35:37.372Z,10224.00
2018-07-06T06:36:37.304Z,9664.00
2018-07-06T06:37:37.267Z,9332.00
2018-07-06T06:38:37.271Z,9404.00
2018-07-06T06:39:37.210Z,9368.00
2018-07-06T06:40:37.186Z,9008.00
2018-07-06T06:41:37.126Z,8216.00
2018-07-06T06:42:37.154Z,8164.00
2018-07-06T06:43:37.213Z,8856.00
2018-07-06T06:44:37.049Z,9368.00
2018-07-06T06:45:37.124Z,9568.00
2018-07-06T06:46:36.980Z,9704.00
2018-07-06T06:47:36.926Z,9808.00
2018-07-06T06:48:36.904Z,10512.00
2018-07-06T06:49:36.857Z,10212.00
2018-07-06T06:50:36.831Z,9524.00
2018-07-06T06:51:36.774Z,9436.00
2018-07-06T06:52:36.721Z,8832.00
2018-07-06T06:53:36.746Z,8116.00
2018-07-06T06:54:36.672Z,8264.00
2018-07-06T06:55:47.662Z,8528.00
2018-07-06T06:56:36.605Z,8504.00
2018-07-06T06:57:36.556Z,8752.00
2018-07-06T06:58:36.523Z,9204.00
2018-07-06T06:59:36.508Z,8996.00
2018-07-06T07:00:36.425Z,8840.00
2018-07-06T07:01:36.408Z,9224.00
2018-07-06T07:02:36.364Z,9476.00
2018-07-06T07:03:36.327Z,9040.00
2018-07-06T07:04:36.335Z,9264.00
2018-07-06T07:05:36.283Z,9512.00
2018-07-06T07:06:36.250Z,10096.00
2018-07-06T07:07:36.316Z,10548.00
2018-07-06T07:08:36.148Z,10324.00
2018-07-06T07:09:36.141Z,10952.00
2018-07-06T07:10:36.068Z,11760.00
2018-07-06T07:11:36.050Z,11356.00
2018-07-06T07:12:36.006Z,11252.00
2018-07-06T07:13:36.021Z,11960.00
2018-07-06T07:14:35.955Z,13132.00
2018-07-06T07:15:35.893Z,12836.00
2018-07-06T07:16:35.863Z,11616.00
2018-07-06T07:17:35.823Z,11060.00
2018-07-06T07:18:35.810Z,11044.00
2018-07-06T07:19:35.782Z,11264.00
2018-07-06T07:20:35.722Z,11676.00
2018-07-06T07:21:35.677Z,11708.00
2018-07-06T07:22:35.640Z,11224.00
2018-07-06T07:23:35.633Z,11412.00
2018-07-06T07:24:35.616Z,11976.00
2018-07-06T07:25:35.546Z,12848.00
2018-07-06T07:26:35.506Z,14120.00
2018-07-06T07:27:35.464Z,14564.00
2018-07-06T07:28:35.429Z,13312.00
2018-07-06T07:29:35.419Z,12576.00
2018-07-06T07:30:35.365Z,13000.00
2018-07-06T07:31:35.322Z,13348.00
2018-07-06T07:32:35.281Z,13228.00
2018-07-06T07:33:35.249Z,14056.00
2018-07-06T07:34:35.239Z,15572.00
2018-07-06T07:35:35.197Z,16832.00
2018-07-06T07:36:35.148Z,15276.00
2018-07-06T07:37:35.119Z,13336.00
2018-07-06T07:38:35.086Z,12700.00
2018-07-06T07:39:35.082Z,12212.00
2018-07-06T07:40:35.004Z,12228.00
2018-07-06T07:41:34.984Z,13452.00
2018-07-06T07:42:34.934Z,14612.00
2018-07-06T07:43:34.930Z,14128.00
2018-07-06T07:44:34.877Z,13908.00
2018-07-06T07:45:34.842Z,13500.00
2018-07-06T07:46:34.850Z,13760.00
2018-07-06T07:47:34.803Z,13504.00
2018-07-06T07:48:34.755Z,13448.00
2018-07-06T07:49:34.698Z,14408.00
2018-07-06T07:50:34.658Z,15096.00
2018-07-06T07:51:34.615Z,16272.00
2018-07-06T07:52:34.584Z,17568.00
2018-07-06T07:53:34.562Z,16992.00
2018-07-06T07:54:34.522Z,16864.00
2018-07-06T07:55:34.482Z,17856.00
2018-07-06T07:56:34.443Z,17760.00
2018-07-06T07:57:34.405Z,16228.00
2018-07-06T07:58:34.396Z,16268.00
2018-07-06T07:59:34.345Z,16456.00
2018-07-06T08:00:34.400Z,16832.00
2018-07-06T08:01:34.347Z,17888.00
2018-07-06T08:02:34.244Z,19136.00
2018-07-06T08:03:34.212Z,18944.00
2018-07-06T08:04:34.187Z,18816.00
2018-07-06T08:05:34.133Z,19488.00
2018-07-06T08:06:34.107Z,20480.00
2018-07-06T08:07:34.061Z,21792.00
2018-07-06T08:08:34.088Z,22016.00
2018-07-06T08:09:34.043Z,19520.00
2018-07-06T08:10:33.985Z,17376.00
2018-07-06T08:11:35.446Z,15128.00
2018-07-06T08:12:33.919Z,14356.00
2018-07-06T08:13:33.882Z,14948.00
2018-07-06T08:14:33.920Z,15044.00
2018-07-06T08:15:33.800Z,14436.00
2018-07-06T08:16:33.761Z,13620.00
2018-07-06T08:17:33.745Z,13040.00
2018-07-06T08:18:33.705Z,13408.00
2018-07-06T08:19:33.685Z,13788.00
2018-07-06T08:20:33.626Z,13796.00
2018-07-06T08:21:33.582Z,13176.00
2018-07-06T08:22:33.556Z,12752.00
2018-07-06T08:23:33.532Z,12752.00
2018-07-06T08:24:33.488Z,12984.00
2018-07-06T08:25:33.497Z,14036.00
2018-07-06T08:26:33.400Z,14996.00
2018-07-06T08:27:33.373Z,15800.00
2018-07-06T08:28:33.358Z,15464.00
2018-07-06T08:29:33.310Z,14384.00
2018-07-06T08:30:33.264Z,13436.00
2018-07-06T08:31:33.240Z,13356.00
2018-07-06T08:32:33.195Z,14020.00
2018-07-06T08:33:33.192Z,15204.00
2018-07-06T08:34:33.140Z,16576.00
2018-07-06T08:35:33.088Z,18208.00
2018-07-06T08:36:33.180Z,18880.00
2018-07-06T08:37:33.033Z,18592.00
2018-07-06T08:38:33.008Z,17216.00
2018-07-06T08:39:33.053Z,16864.00
2018-07-06T08:40:32.926Z,16512.00
2018-07-06T08:41:32.909Z,16640.00
2018-07-06T08:42:32.866Z,16448.00
2018-07-06T08:43:32.848Z,16480.00
2018-07-06T08:44:32.789Z,16480.00
2018-07-06T08:45:32.739Z,17152.00
2018-07-06T08:46:32.710Z,18464.00
2018-07-06T08:47:32.689Z,20896.00
2018-07-06T08:48:32.659Z,22304.00
2018-07-06T08:49:32.610Z,22464.00
2018-07-06T08:50:32.594Z,21312.00
2018-07-06T08:51:32.544Z,22048.00
2018-07-06T08:52:42.691Z,22816.00
2018-07-06T08:53:32.486Z,22176.00
2018-07-06T08:54:32.422Z,22240.00
2018-07-06T08:55:32.407Z,22176.00
2018-07-06T08:56:32.373Z,22560.00
2018-07-06T08:57:32.333Z,24544.00
2018-07-06T08:58:32.447Z,26912.00
2018-07-06T08:59:32.291Z,29312.00
2018-07-06T09:00:32.235Z,27904.00
2018-07-06T09:01:32.209Z,25888.00
2018-07-06T09:02:32.159Z,26144.00
2018-07-06T09:03:32.202Z,29440.00
2018-07-06T09:04:32.182Z,42208.00
2018-07-06T09:05:32.065Z,44928.00
2018-07-06T09:06:32.076Z,33248.00
2018-07-06T09:07:32.025Z,43040.00
2018-07-06T09:08:31.966Z,34208.00
2018-07-06T09:09:31.989Z,40064.00
2018-07-06T09:10:31.897Z,50464.00
2018-07-06T09:11:31.899Z,58880.00
2018-07-06T09:12:31.836Z,50272.00
2018-07-06T09:13:31.853Z,56064.00
2018-07-06T09:14:31.758Z,54528.00
2018-07-06T09:15:31.748Z,60224.00
2018-07-06T09:16:31.767Z,54336.00
2018-07-06T09:17:31.690Z,47360.00
2018-07-06T09:18:31.668Z,21152.00
2018-07-06T09:19:31.660Z,19680.00
2018-07-06T09:20:31.626Z,21088.00
2018-07-06T09:21:31.553Z,23872.00
2018-07-06T09:22:31.585Z,26688.00
2018-07-06T09:23:31.505Z,57248.00
2018-07-06T09:24:31.479Z,26592.00
2018-07-06T09:25:31.516Z,27392.00
2018-07-06T09:26:31.431Z,39488.00
2018-07-06T09:27:31.346Z,24768.00
2018-07-06T09:28:31.462Z,23040.00
2018-07-06T09:29:31.334Z,24032.00
2018-07-06T09:30:31.348Z,25504.00
2018-07-06T09:31:31.254Z,22336.00
2018-07-06T09:32:31.227Z,23712.00
2018-07-06T09:33:31.181Z,25760.00
2018-07-06T09:34:31.156Z,55904.00
2018-07-06T09:35:31.135Z,56576.00
2018-07-06T09:36:31.214Z,61248.00
2018-07-06T09:37:31.065Z,63744.00
2018-07-06T09:38:31.017Z,79456.00
2018-07-06T09:39:30.990Z,62560.00
2018-07-06T09:40:30.976Z,63392.00
2018-07-06T09:41:30.963Z,58560.00
2018-07-06T09:42:30.887Z,62656.00
2018-07-06T09:43:30.877Z,31104.00
2018-07-06T09:44:30.853Z,26720.00
2018-07-06T09:45:30.835Z,49568.00
2018-07-06T09:46:30.799Z,30400.00
2018-07-06T09:47:30.755Z,40448.00
2018-07-06T09:48:30.716Z,37920.00
2018-07-06T09:49:30.675Z,40096.00
2018-07-06T09:50:30.665Z,39008.00
2018-07-06T09:51:30.608Z,47872.00
2018-07-06T09:52:30.620Z,28384.00
2018-07-06T09:53:30.553Z,27008.00
2018-07-06T09:54:30.565Z,28736.00
2018-07-06T09:55:30.524Z,29664.00
2018-07-06T09:56:30.480Z,26400.00
2018-07-06T09:57:30.483Z,28256.00
2018-07-06T09:58:30.415Z,26720.00
2018-07-06T09:59:30.391Z,25856.00
2018-07-06T10:00:30.358Z,24480.00
2018-07-06T10:01:30.413Z,24064.00
2018-07-06T10:02:30.340Z,24512.00
2018-07-06T10:03:30.260Z,23840.00
2018-07-06T10:04:30.253Z,22944.00
2018-07-06T10:05:30.228Z,22560.00
2018-07-06T10:06:30.209Z,22688.00
2018-07-06T10:07:30.157Z,23904.00
2018-07-06T10:08:30.151Z,22528.00
2018-07-06T10:09:30.108Z,25344.00
2018-07-06T10:10:30.089Z,23840.00
2018-07-06T10:11:30.050Z,22976.00
2018-07-06T10:12:30.046Z,23744.00
2018-07-06T10:13:30.012Z,24032.00
2018-07-06T10:14:29.976Z,23392.00
2018-07-06T10:15:29.946Z,56032.00
2018-07-06T10:16:29.905Z,24256.00
2018-07-06T10:17:29.885Z,98112.00
2018-07-06T10:18:29.926Z,38496.00
2018-07-06T10:19:29.891Z,25056.00
2018-07-06T10:20:29.811Z,42688.00
2018-07-06T10:21:29.799Z,19264.00
2018-07-06T10:22:29.755Z,23136.00
2018-07-06T10:23:29.746Z,17016.00
2018-07-06T10:24:29.718Z,17276.00
2018-07-06T10:25:29.658Z,18072.00
2018-07-06T10:26:29.628Z,22176.00
2018-07-06T10:27:29.630Z,24736.00
2018-07-06T10:28:39.289Z,22464.00
2018-07-06T10:29:29.551Z,23424.00
2018-07-06T10:30:29.525Z,23456.00
2018-07-06T10:31:29.491Z,24256.00
2018-07-06T10:32:29.480Z,25280.00
2018-07-06T10:33:29.440Z,25056.00
2018-07-06T10:34:29.455Z,22624.00
2018-07-06T10:35:29.380Z,24736.00
2018-07-06T10:36:29.370Z,24992.00
2018-07-06T10:37:29.320Z,22656.00
2018-07-06T10:38:29.313Z,20992.00
2018-07-06T10:39:29.346Z,21984.00
2018-07-06T10:40:29.307Z,21824.00
2018-07-06T10:41:29.225Z,22304.00
2018-07-06T10:42:29.201Z,22496.00
2018-07-06T10:43:29.168Z,22848.00
2018-07-06T10:44:29.132Z,25312.00
2018-07-06T10:45:29.133Z,25664.00
2018-07-06T10:46:29.079Z,27104.00
2018-07-06T10:47:29.053Z,41856.00
2018-07-06T10:48:29.040Z,25088.00
2018-07-06T10:49:28.991Z,62080.00
2018-07-06T10:50:28.995Z,63328.00
2018-07-06T10:51:28.944Z,56640.00
2018-07-06T10:52:37.781Z,28224.00
2018-07-06T10:53:28.873Z,30272.00
2018-07-06T10:54:28.840Z,61312.00
2018-07-06T10:55:28.873Z,60864.00
2018-07-06T10:56:28.802Z,59968.00
2018-07-06T10:57:28.774Z,60512.00
2018-07-06T10:58:28.768Z,60320.00
2018-07-06T10:59:28.742Z,57920.00
2018-07-06T11:00:28.711Z,56512.00
2018-07-06T11:01:28.685Z,57920.00
2018-07-06T11:02:28.637Z,58464.00
2018-07-06T11:03:28.612Z,58912.00
2018-07-06T11:04:28.583Z,60352.00
2018-07-06T11:05:28.603Z,59520.00
2018-07-06T11:06:28.565Z,59008.00
2018-07-06T11:07:28.525Z,59520.00
2018-07-06T11:08:28.476Z,60320.00
2018-07-06T11:09:28.468Z,58496.00
2018-07-06T11:10:28.426Z,59456.00
2018-07-06T11:11:28.463Z,62016.00
2018-07-06T11:12:28.369Z,63232.00
2018-07-06T11:13:28.361Z,62624.00
2018-07-06T11:14:28.336Z,62496.00
2018-07-06T11:15:28.284Z,66496.00
2018-07-06T11:16:28.260Z,62880.00
2018-07-06T11:17:28.294Z,68192.00
2018-07-06T11:18:28.252Z,21216.00
2018-07-06T11:19:28.198Z,16196.00
2018-07-06T11:20:28.154Z,14540.00
2018-07-06T11:21:28.143Z,16664.00
2018-07-06T11:22:28.120Z,53824.00
2018-07-06T11:23:28.095Z,57280.00
2018-07-06T11:24:28.058Z,58752.00
2018-07-06T11:25:28.084Z,58272.00
2018-07-06T11:26:27.997Z,58624.00
2018-07-06T11:27:27.990Z,59264.00
2018-07-06T11:28:27.941Z,60672.00
2018-07-06T11:29:27.912Z,60704.00
2018-07-06T11:30:27.895Z,59200.00
2018-07-06T11:31:27.874Z,59584.00
2018-07-06T11:32:27.872Z,60960.00
2018-07-06T11:33:27.799Z,62464.00
2018-07-06T11:34:27.779Z,66656.00
2018-07-06T11:35:27.769Z,61984.00
2018-07-06T11:36:27.720Z,65600.00
2018-07-06T11:37:27.701Z,66240.00
2018-07-06T11:38:27.705Z,28832.00
2018-07-06T11:39:27.677Z,70368.00
2018-07-06T11:40:27.616Z,67968.00
2018-07-06T11:41:27.593Z,45760.00
2018-07-06T11:42:27.636Z,65152.00
2018-07-06T11:43:27.529Z,63808.00
2018-07-06T11:44:27.510Z,57184.00
2018-07-06T11:45:27.466Z,62464.00
2018-07-06T11:46:27.450Z,63264.00
2018-07-06T11:47:27.466Z,64128.00
2018-07-06T11:48:27.393Z,64832.00
2018-07-06T11:49:38.347Z,59968.00
2018-07-06T11:50:27.443Z,54240.00
2018-07-06T11:51:27.308Z,30496.00
2018-07-06T11:52:27.316Z,20864.00
2018-07-06T11:53:27.278Z,45120.00
2018-07-06T11:54:27.350Z,24320.00
2018-07-06T11:55:27.221Z,22208.00
2018-07-06T11:56:27.177Z,21184.00
2018-07-06T11:57:27.161Z,24032.00
2018-07-06T11:58:27.153Z,24896.00
2018-07-06T11:59:27.204Z,25632.00
2018-07-06T12:00:27.093Z,25536.00
2018-07-06T12:01:27.060Z,27424.00
2018-07-06T12:02:27.025Z,28288.00
2018-07-06T12:03:27.028Z,23296.00
2018-07-06T12:04:27.039Z,22432.00
2018-07-06T12:05:26.960Z,19488.00
2018-07-06T12:06:26.924Z,17024.00
2018-07-06T12:07:26.914Z,17120.00
2018-07-06T12:08:26.879Z,19040.00
2018-07-06T12:09:26.861Z,22432.00
2018-07-06T12:10:26.814Z,16216.00
2018-07-06T12:11:26.791Z,15284.00
2018-07-06T12:12:26.774Z,0.00
2018-07-06T12:13:26.776Z,14572.00